Time;durP1;ratioP1;P1;durP2;ratioP2;P2;SDS_P1;SDS_P2;PMS_P1;PMS_P2;Temp;Humidity;BMP_temperature;BMP_pressure;BME280_temperature;BME280_humidity;BME280_pressure;Samples;Min_cycle;Max_cycle;Signal;HPM_P1;HPM_P2
2022/03/11 00:00:37;;;;;;;12.77;9.18;;;6.60;73.60;;;;;;5064253;28;20123;-79
2022/03/11 00:03:03;;;;;;;14.27;8.43;;;6.60;73.40;;;;;;5068430;28;20127;-79
2022/03/11 00:05:28;;;;;;;11.55;8.98;;;6.60;73.40;;;;;;5064430;28;20036;-79
2022/03/11 00:07:55;;;;;;;13.13;8.52;;;6.60;73.90;;;;;;5066404;28;20045;-79
2022/03/11 00:10:21;;;;;;;13.70;9.63;;;6.50;73.50;;;;;;5067274;28;20037;-78
2022/03/11 00:12:47;;;;;;;13.95;8.65;;;6.50;73.70;;;;;;5072376;28;20105;-79
2022/03/11 00:15:13;;;;;;;10.68;8.82;;;6.50;74.00;;;;;;5069572;28;20052;-79
2022/03/11 00:17:39;;;;;;;11.20;8.60;;;6.50;74.20;;;;;;5066552;28;20047;-78
2022/03/11 00:20:06;;;;;;;16.10;9.35;;;6.40;73.90;;;;;;5065834;28;20545;-78
2022/03/11 00:22:31;;;;;;;14.32;8.77;;;6.40;74.60;;;;;;5069014;28;20051;-79
2022/03/11 00:24:57;;;;;;;14.73;9.38;;;6.30;74.50;;;;;;5069114;28;20031;-78
2022/03/11 00:27:22;;;;;;;15.32;9.02;;;6.30;74.70;;;;;;5069119;28;20082;-79
2022/03/11 00:29:48;;;;;;;11.80;9.07;;;6.20;74.80;;;;;;5069874;28;20406;-79
2022/03/11 00:32:14;;;;;;;11.45;8.75;;;6.10;74.80;;;;;;5067577;28;20495;-79
2022/03/11 00:34:40;;;;;;;12.75;8.57;;;6.20;74.90;;;;;;5070807;28;20040;-79
2022/03/11 00:37:05;;;;;;;16.55;9.30;;;6.10;74.70;;;;;;5071307;28;20044;-78
2022/03/11 00:39:31;;;;;;;13.35;8.68;;;6.20;75.20;;;;;;5064999;28;20048;-79
2022/03/11 00:41:57;;;;;;;12.30;8.68;;;6.10;74.80;;;;;;5068383;28;20399;-78
2022/03/11 00:44:22;;;;;;;9.52;8.13;;;6.10;75.40;;;;;;5072127;28;20036;-79
2022/03/11 00:46:51;;;;;;;9.38;7.65;;;6.00;75.50;;;;;;5068897;28;20098;-79
2022/03/11 00:49:16;;;;;;;12.35;8.90;;;6.00;75.40;;;;;;5068222;28;20064;-79
2022/03/11 00:51:42;;;;;;;12.25;8.35;;;6.00;75.50;;;;;;5070532;28;20078;-79
2022/03/11 00:54:08;;;;;;;16.48;8.00;;;6.00;75.90;;;;;;5072785;28;20044;-79
2022/03/11 00:56:33;;;;;;;14.98;8.40;;;5.90;75.80;;;;;;5069641;28;20047;-79
2022/03/11 00:58:59;;;;;;;12.20;8.23;;;5.90;75.90;;;;;;5070970;28;20040;-78
2022/03/11 01:01:24;;;;;;;13.10;8.25;;;5.80;76.60;;;;;;5073582;28;20119;-78
2022/03/11 01:03:50;;;;;;;10.55;7.50;;;5.80;76.80;;;;;;5069417;28;20050;-78
2022/03/11 01:06:16;;;;;;;11.20;7.63;;;5.80;76.80;;;;;;5070151;28;20074;-79
2022/03/11 01:08:41;;;;;;;12.05;8.35;;;5.80;77.50;;;;;;5067000;28;20124;-78
2022/03/11 01:11:11;;;;;;;11.43;7.72;;;5.70;76.60;;;;;;5093088;28;20045;-79
2022/03/11 01:13:38;;;;;;;10.95;7.65;;;5.70;77.20;;;;;;5069090;28;20044;-78
2022/03/11 01:16:05;;;;;;;12.10;7.90;;;5.70;77.20;;;;;;5066613;28;20037;-79
2022/03/11 01:18:31;;;;;;;10.75;7.13;;;5.70;77.90;;;;;;5070225;28;20055;-78
2022/03/11 01:20:57;;;;;;;11.50;8.75;;;5.70;77.50;;;;;;5071330;28;20355;-79
2022/03/11 01:23:24;;;;;;;9.65;6.57;;;5.70;78.00;;;;;;5073614;28;20438;-78
2022/03/11 01:25:49;;;;;;;8.98;7.57;;;5.60;78.10;;;;;;5069600;28;20090;-79
2022/03/11 01:28:15;;;;;;;11.43;7.65;;;5.70;78.70;;;;;;5071941;28;20425;-79
2022/03/11 01:30:41;;;;;;;9.20;7.43;;;5.60;78.50;;;;;;5068477;28;20044;-79
2022/03/11 01:33:07;;;;;;;11.32;7.30;;;5.50;78.90;;;;;;5072322;28;20064;-78
2022/03/11 01:35:33;;;;;;;11.23;6.88;;;5.50;79.00;;;;;;5069756;28;20062;-79
2022/03/11 01:37:59;;;;;;;10.70;6.63;;;5.50;79.30;;;;;;5071850;28;20036;-79
2022/03/11 01:40:25;;;;;;;12.15;7.00;;;5.40;79.60;;;;;;5072581;28;20648;-79
2022/03/11 01:42:50;;;;;;;11.98;6.97;;;5.40;79.90;;;;;;5071591;28;20111;-79
2022/03/11 01:45:16;;;;;;;11.10;7.00;;;5.40;80.30;;;;;;5072370;28;20119;-79
2022/03/11 01:47:45;;;;;;;9.93;7.00;;;5.40;80.50;;;;;;5072390;28;20110;-78
2022/03/11 01:50:11;;;;;;;11.40;7.07;;;5.30;81.10;;;;;;5096085;28;20036;-79
2022/03/11 01:52:37;;;;;;;10.85;6.28;;;5.30;81.10;;;;;;5071008;28;20040;-79
2022/03/11 01:55:04;;;;;;;15.07;7.35;;;5.30;81.60;;;;;;5071431;28;20617;-80
2022/03/11 01:57:37;;;;;;;10.75;6.35;;;5.30;81.90;;;;;;5079724;28;20049;-79
2022/03/11 02:00:07;;;;;;;11.13;7.47;;;5.20;82.30;;;;;;5069084;28;20080;-79
2022/03/11 02:02:33;;;;;;;8.95;6.75;;;5.20;82.60;;;;;;5069394;28;20048;-78
2022/03/11 02:04:59;;;;;;;10.13;7.03;;;5.20;82.60;;;;;;5076485;28;20035;-79
2022/03/11 02:07:26;;;;;;;9.15;6.75;;;5.20;82.70;;;;;;5074957;28;20059;-79
2022/03/11 02:09:53;;;;;;;14.43;6.72;;;5.20;82.80;;;;;;5071592;28;20028;-78
2022/03/11 02:12:30;;;;;;;11.18;7.07;;;5.10;83.30;;;;;;5075433;28;20372;-79
2022/03/11 02:14:56;;;;;;;10.18;7.18;;;5.10;83.80;;;;;;5076210;28;20048;-78
2022/03/11 02:17:22;;;;;;;10.07;6.78;;;5.10;84.30;;;;;;5070524;28;20469;-78
2022/03/11 02:19:48;;;;;;;11.10;7.07;;;5.00;84.90;;;;;;5068630;28;20032;-79
2022/03/11 02:22:16;;;;;;;9.88;7.22;;;5.00;85.00;;;;;;5070952;28;20978;-79
2022/03/11 02:24:41;;;;;;;9.30;6.68;;;5.00;85.70;;;;;;5070247;28;20044;-79
2022/03/11 02:27:07;;;;;;;13.23;8.07;;;4.90;86.10;;;;;;5070493;28;20064;-79
2022/03/11 02:29:32;;;;;;;13.02;7.20;;;5.00;86.20;;;;;;5071578;28;20048;-79
2022/03/11 02:31:58;;;;;;;12.60;7.60;;;4.90;87.00;;;;;;5069213;28;20056;-79
2022/03/11 02:34:24;;;;;;;12.50;8.25;;;4.90;87.40;;;;;;5071766;28;20040;-78
2022/03/11 02:36:49;;;;;;;12.48;7.18;;;4.90;87.80;;;;;;5071139;28;20040;-78
2022/03/11 02:39:15;;;;;;;9.82;7.10;;;4.90;88.10;;;;;;5067745;28;20066;-79
2022/03/11 02:41:43;;;;;;;11.15;8.50;;;4.80;88.60;;;;;;5069230;28;20068;-78
2022/03/11 02:44:09;;;;;;;13.57;8.25;;;4.80;89.10;;;;;;5068995;28;20543;-78
2022/03/11 02:46:35;;;;;;;12.77;8.18;;;4.80;89.60;;;;;;5075207;28;20101;-79
2022/03/11 02:49:01;;;;;;;12.85;7.47;;;4.80;90.20;;;;;;5071285;28;20044;-79
2022/03/11 02:51:26;;;;;;;11.23;8.23;;;4.70;90.30;;;;;;5072505;28;20028;-79
2022/03/11 02:53:52;;;;;;;11.48;8.20;;;4.80;90.50;;;;;;5072017;28;20024;-79
2022/03/11 02:56:18;;;;;;;13.82;8.00;;;4.70;90.80;;;;;;5056376;28;20044;-79
2022/03/11 02:58:43;;;;;;;13.45;8.05;;;4.70;90.90;;;;;;5067100;28;20394;-79
2022/03/11 03:01:09;;;;;;;11.52;8.50;;;4.70;91.10;;;;;;5065795;28;20040;-78
2022/03/11 03:03:35;;;;;;;11.90;8.85;;;4.70;91.40;;;;;;5076434;28;20129;-79
2022/03/11 03:06:01;;;;;;;12.68;8.55;;;4.70;91.70;;;;;;5047013;28;20047;-78
2022/03/11 03:08:27;;;;;;;11.02;8.23;;;4.70;91.80;;;;;;5068063;28;20407;-79
2022/03/11 03:10:52;;;;;;;15.75;9.07;;;4.70;92.10;;;;;;5069173;28;20054;-79
2022/03/11 03:13:18;;;;;;;15.18;9.20;;;4.70;92.20;;;;;;5069224;28;20040;-78
2022/03/11 03:15:44;;;;;;;12.52;8.88;;;4.70;92.30;;;;;;5069896;28;20568;-78
2022/03/11 03:18:09;;;;;;;14.50;9.52;;;4.70;92.60;;;;;;5069647;28;20175;-78
2022/03/11 03:20:35;;;;;;;16.15;8.95;;;4.60;92.70;;;;;;5068964;28;20039;-78
2022/03/11 03:23:00;;;;;;;14.32;9.38;;;4.70;92.60;;;;;;5070828;28;20037;-79
2022/03/11 03:25:26;;;;;;;14.15;9.93;;;4.70;92.70;;;;;;5066487;28;20585;-78
2022/03/11 03:27:52;;;;;;;13.30;10.02;;;4.70;92.80;;;;;;5068304;28;20047;-79
2022/03/11 03:30:19;;;;;;;15.05;9.52;;;4.70;92.80;;;;;;5067383;28;20036;-78
2022/03/11 03:32:44;;;;;;;13.85;9.90;;;4.80;93.00;;;;;;5069067;28;20487;-79
2022/03/11 03:35:11;;;;;;;12.32;8.93;;;4.80;92.90;;;;;;5075006;28;20074;-79
2022/03/11 03:37:36;;;;;;;15.75;10.63;;;4.80;93.10;;;;;;5075589;28;20043;-79
2022/03/11 03:40:04;;;;;;;13.98;10.00;;;4.70;93.20;;;;;;5066346;28;20040;-78
2022/03/11 03:42:29;;;;;;;14.65;10.65;;;4.70;93.20;;;;;;5070688;28;20086;-78
2022/03/11 03:44:55;;;;;;;13.38;9.98;;;4.70;93.40;;;;;;5068928;28;20032;-79
2022/03/11 03:47:20;;;;;;;13.75;9.82;;;4.70;93.50;;;;;;5071458;28;20032;-79
2022/03/11 03:49:46;;;;;;;19.00;10.40;;;4.70;93.50;;;;;;5067399;28;20047;-79
2022/03/11 03:52:12;;;;;;;14.60;9.90;;;4.70;93.60;;;;;;5067970;28;20041;-78
2022/03/11 03:54:41;;;;;;;16.08;10.30;;;4.70;93.60;;;;;;5068875;28;20102;-78
2022/03/11 03:57:07;;;;;;;16.00;11.73;;;4.70;93.60;;;;;;5069416;28;20044;-80
2022/03/11 03:59:34;;;;;;;15.57;10.98;;;4.70;93.40;;;;;;5070400;28;20079;-79
2022/03/11 04:01:59;;;;;;;13.93;10.35;;;4.60;94.10;;;;;;5068006;28;20037;-79
2022/03/11 04:04:25;;;;;;;18.38;10.25;;;4.60;94.00;;;;;;5071573;28;20397;-78
2022/03/11 04:06:51;;;;;;;15.40;10.30;;;4.60;94.40;;;;;;5068022;28;20052;-79
2022/03/11 04:09:16;;;;;;;16.05;11.48;;;4.60;94.50;;;;;;5066951;28;20044;-79
2022/03/11 04:11:42;;;;;;;18.33;11.88;;;4.50;94.70;;;;;;5100182;28;20047;-79
2022/03/11 04:14:08;;;;;;;14.13;10.00;;;4.50;94.90;;;;;;5068051;28;20048;-78
2022/03/11 04:16:34;;;;;;;15.35;10.82;;;4.50;94.90;;;;;;5067854;28;20052;-79
2022/03/11 04:19:00;;;;;;;18.30;10.88;;;4.40;95.10;;;;;;5064541;28;20044;-78
2022/03/11 04:21:26;;;;;;;18.25;11.52;;;4.40;95.50;;;;;;5062270;28;20402;-78
2022/03/11 04:23:52;;;;;;;17.58;11.88;;;4.40;95.60;;;;;;5069393;28;20029;-78
2022/03/11 04:26:18;;;;;;;17.58;12.05;;;4.30;96.10;;;;;;5067505;28;20093;-79
2022/03/11 04:28:44;;;;;;;17.95;11.82;;;4.30;96.20;;;;;;5066993;28;20076;-79
2022/03/11 04:31:11;;;;;;;15.68;11.63;;;4.20;96.30;;;;;;5061876;28;20074;-79
2022/03/11 04:33:38;;;;;;;16.65;11.75;;;4.20;96.80;;;;;;5068677;28;20038;-79
2022/03/11 04:36:05;;;;;;;20.77;12.20;;;4.20;96.90;;;;;;5061275;28;20063;-79
2022/03/11 04:38:31;;;;;;;17.95;11.82;;;4.10;97.30;;;;;;5074095;28;20452;-79
2022/03/11 04:40:57;;;;;;;16.38;11.93;;;4.10;97.40;;;;;;5072989;28;20034;-79
2022/03/11 04:43:23;;;;;;;18.88;12.20;;;4.10;97.60;;;;;;5071840;28;20122;-78
2022/03/11 04:45:49;;;;;;;20.13;12.07;;;4.10;97.80;;;;;;5072883;28;20049;-78
2022/03/11 04:48:15;;;;;;;16.77;12.38;;;4.10;98.00;;;;;;5075223;28;20044;-78
2022/03/11 04:50:40;;;;;;;18.08;13.02;;;4.00;98.00;;;;;;5070019;28;20506;-79
2022/03/11 04:53:06;;;;;;;20.30;13.77;;;4.10;98.00;;;;;;5054206;28;20399;-79
2022/03/11 04:55:33;;;;;;;15.52;11.98;;;4.00;98.20;;;;;;5074708;28;20443;-78
2022/03/11 04:57:58;;;;;;;18.40;13.38;;;4.00;98.20;;;;;;5101791;28;20048;-78
2022/03/11 05:00:25;;;;;;;19.23;13.18;;;3.90;98.60;;;;;;5069734;28;20398;-79
2022/03/11 05:02:51;;;;;;;20.33;13.32;;;4.00;98.30;;;;;;5071860;28;20513;-78
2022/03/11 05:05:16;;;;;;;22.63;13.35;;;4.00;98.50;;;;;;5074188;28;20112;-79
2022/03/11 05:07:42;;;;;;;18.70;12.55;;;3.90;98.90;;;;;;5072980;28;20472;-79
2022/03/11 05:10:10;;;;;;;20.60;13.85;;;3.90;98.80;;;;;;5072695;28;20089;-79
2022/03/11 05:12:37;;;;;;;21.70;13.93;;;3.90;98.90;;;;;;5071794;28;20078;-78
2022/03/11 05:15:04;;;;;;;19.88;13.40;;;3.90;99.00;;;;;;5098955;28;20059;-79
2022/03/11 05:17:30;;;;;;;18.38;13.07;;;3.90;99.50;;;;;;5070114;28;20049;-79
2022/03/11 05:19:56;;;;;;;19.83;14.00;;;3.80;99.40;;;;;;5068985;28;20552;-78
2022/03/11 05:22:21;;;;;;;19.63;14.25;;;3.80;99.60;;;;;;5069376;28;20423;-78
2022/03/11 05:24:47;;;;;;;21.35;14.57;;;3.80;99.70;;;;;;5070879;28;20045;-79
2022/03/11 05:27:13;;;;;;;21.10;14.10;;;3.80;99.80;;;;;;5100924;28;20106;-78
2022/03/11 05:29:40;;;;;;;21.42;14.05;;;3.70;99.90;;;;;;5101838;28;20048;-78
2022/03/11 05:32:07;;;;;;;21.02;14.43;;;3.70;99.90;;;;;;5069966;28;20055;-78
2022/03/11 05:34:34;;;;;;;18.60;14.40;;;3.70;99.90;;;;;;5068945;28;20051;-78
2022/03/11 05:36:59;;;;;;;18.75;13.40;;;3.70;99.90;;;;;;5070827;28;20047;-78
2022/03/11 05:39:25;;;;;;;23.88;14.50;;;3.60;99.90;;;;;;5070026;28;20036;-78
2022/03/11 05:41:51;;;;;;;21.35;14.02;;;3.70;99.90;;;;;;5068466;28;20431;-78
2022/03/11 05:44:17;;;;;;;21.33;15.38;;;3.60;99.90;;;;;;5073453;28;20039;-78
2022/03/11 05:46:44;;;;;;;20.95;15.45;;;3.60;99.90;;;;;;5063826;28;20099;-78
2022/03/11 05:49:10;;;;;;;21.92;14.95;;;3.60;99.90;;;;;;5070298;28;20044;-79
2022/03/11 05:51:36;;;;;;;19.52;14.95;;;3.50;99.90;;;;;;5071285;28;20494;-78
2022/03/11 05:54:02;;;;;;;22.48;15.32;;;3.60;99.90;;;;;;5067891;28;20119;-78
2022/03/11 05:56:27;;;;;;;22.77;15.52;;;3.50;99.90;;;;;;5070273;28;20542;-78
2022/03/11 05:58:53;;;;;;;23.08;15.93;;;3.50;99.90;;;;;;5070181;28;20063;-78
2022/03/11 06:01:19;;;;;;;24.48;15.90;;;3.40;99.90;;;;;;5069044;28;20036;-79
2022/03/11 06:03:52;;;;;;;23.65;15.98;;;3.40;99.90;;;;;;5071149;28;20040;-78
2022/03/11 06:06:18;;;;;;;20.75;14.77;;;3.40;99.90;;;;;;5072682;28;20079;-79
2022/03/11 06:08:45;;;;;;;22.63;15.80;;;3.40;99.90;;;;;;5069026;28;20039;-79
2022/03/11 06:11:10;;;;;;;22.60;14.52;;;3.40;99.90;;;;;;5083388;28;20394;-77
2022/03/11 06:13:36;;;;;;;23.55;15.93;;;3.30;99.90;;;;;;5084134;28;20033;-78
2022/03/11 06:16:03;;;;;;;22.27;15.13;;;3.30;99.90;;;;;;5102929;28;20037;-78
2022/03/11 06:18:29;;;;;;;21.17;15.90;;;3.30;99.90;;;;;;5069530;28;20048;-78
2022/03/11 06:20:56;;;;;;;24.30;16.67;;;3.40;99.90;;;;;;5070877;28;20051;-78
2022/03/11 06:23:22;;;;;;;21.73;15.57;;;3.30;99.90;;;;;;5068718;28;20052;-78
2022/03/11 06:25:48;;;;;;;22.17;15.82;;;3.40;99.90;;;;;;5069397;28;20037;-78
2022/03/11 06:28:13;;;;;;;24.60;15.45;;;3.50;99.90;;;;;;5071263;28;20050;-79
2022/03/11 06:30:39;;;;;;;19.73;14.82;;;3.70;99.90;;;;;;5068762;28;20049;-79
2022/03/11 06:33:06;;;;;;;20.58;15.63;;;4.00;99.90;;;;;;5069771;28;20040;-79
2022/03/11 06:35:33;;;;;;;21.55;14.32;;;4.20;98.70;;;;;;5065383;28;20073;-80
2022/03/11 06:37:58;;;;;;;22.90;15.32;;;4.50;98.00;;;;;;5066804;28;20125;-79
2022/03/11 06:40:24;;;;;;;23.08;16.23;;;4.70;97.10;;;;;;5069716;28;20033;-79
2022/03/11 06:42:51;;;;;;;19.02;14.43;;;4.90;95.60;;;;;;5074135;28;20540;-80
2022/03/11 06:45:17;;;;;;;21.52;15.05;;;5.10;94.80;;;;;;5063008;28;20032;-80
2022/03/11 06:47:44;;;;;;;19.33;14.05;;;5.40;93.70;;;;;;5067260;28;20098;-80
2022/03/11 06:50:10;;;;;;;18.73;14.15;;;5.60;92.90;;;;;;5068924;28;20037;-80
2022/03/11 06:52:36;;;;;;;19.20;15.30;;;5.60;92.30;;;;;;5067843;28;20459;-80
2022/03/11 06:55:03;;;;;;;19.33;15.05;;;5.90;91.70;;;;;;5071392;28;20127;-80
2022/03/11 06:57:30;;;;;;;19.13;14.88;;;5.90;91.30;;;;;;5071072;28;20066;-80
2022/03/11 06:59:56;;;;;;;19.67;14.15;;;5.90;91.10;;;;;;5070665;28;20033;-80
2022/03/11 07:02:21;;;;;;;17.73;14.82;;;5.90;91.00;;;;;;5068653;28;20035;-80
2022/03/11 07:04:47;;;;;;;21.55;16.38;;;5.90;91.10;;;;;;5070259;28;20039;-80
2022/03/11 07:07:13;;;;;;;19.58;16.17;;;5.90;90.40;;;;;;5068540;28;20040;-79
2022/03/11 07:09:38;;;;;;;23.83;17.20;;;5.80;91.00;;;;;;5066746;28;20044;-80
2022/03/11 07:12:04;;;;;;;17.90;15.27;;;5.80;90.70;;;;;;5071053;28;20069;-77
2022/03/11 07:14:35;;;;;;;20.73;14.43;;;5.90;90.70;;;;;;5069443;28;20510;-77
2022/03/11 07:17:02;;;;;;;21.13;16.38;;;6.00;90.50;;;;;;5066176;28;20040;-77
2022/03/11 07:19:28;;;;;;;20.88;15.43;;;5.90;90.30;;;;;;5071600;28;20036;-77
2022/03/11 07:21:58;;;;;;;21.70;15.15;;;6.00;90.20;;;;;;5074302;28;20118;-77
2022/03/11 07:24:23;;;;;;;23.30;15.48;;;6.00;89.70;;;;;;5066826;28;20053;-78
2022/03/11 07:26:49;;;;;;;18.73;13.50;;;6.30;89.10;;;;;;5066996;28;20040;-77
2022/03/11 07:29:16;;;;;;;17.35;14.38;;;6.40;87.80;;;;;;5071024;28;20048;-78
2022/03/11 07:31:42;;;;;;;23.15;14.90;;;6.30;88.10;;;;;;5074543;28;20048;-80
2022/03/11 07:34:07;;;;;;;19.98;15.27;;;6.30;89.00;;;;;;5067010;28;20058;-80
2022/03/11 07:36:34;;;;;;;23.10;16.02;;;6.10;88.60;;;;;;5070200;28;20040;-79
2022/03/11 07:39:10;;;;;;;20.23;15.98;;;6.00;89.40;;;;;;5069703;28;20075;-81
2022/03/11 07:41:36;;;;;;;;;;;6.00;89.50;;;;;;5065255;28;20608;-80
2022/03/11 07:44:02;;;;;;;21.40;14.68;;;5.90;90.00;;;;;;5067627;28;19959;-81
2022/03/11 07:46:29;;;;;;;21.38;15.45;;;5.80;89.90;;;;;;5070486;28;20039;-80
2022/03/11 07:48:56;;;;;;;22.25;15.82;;;5.80;89.60;;;;;;5063570;28;20075;-80
2022/03/11 07:51:21;;;;;;;20.58;14.95;;;5.80;90.50;;;;;;5069666;28;20147;-81
2022/03/11 07:53:47;;;;;;;20.33;15.18;;;5.70;90.10;;;;;;5068798;28;20546;-80
2022/03/11 07:56:14;;;;;;;20.33;15.75;;;5.80;90.30;;;;;;5068315;28;20037;-79
2022/03/11 07:58:41;;;;;;;22.13;15.82;;;5.90;90.20;;;;;;5063964;28;20123;-79
2022/03/11 08:01:12;;;;;;;20.50;15.15;;;5.90;90.80;;;;;;5065629;28;20066;-79
2022/03/11 08:03:39;;;;;;;21.58;15.27;;;5.90;89.90;;;;;;5064347;28;20071;-79
2022/03/11 08:06:08;;;;;;;20.42;14.57;;;6.00;90.30;;;;;;5065680;28;20036;-80
2022/03/11 08:08:34;;;;;;;22.70;15.48;;;5.90;89.80;;;;;;5065852;28;20068;-80
2022/03/11 08:11:02;;;;;;;20.83;15.07;;;5.90;89.30;;;;;;5072023;28;20112;-80
2022/03/11 08:13:28;;;;;;;18.70;15.23;;;6.10;89.50;;;;;;5070536;28;20047;-81
2022/03/11 08:15:54;;;;;;;19.92;14.45;;;6.00;88.10;;;;;;5069359;28;20033;-80
2022/03/11 08:18:20;;;;;;;24.70;15.02;;;5.90;89.70;;;;;;5061060;28;20048;-80
2022/03/11 08:20:47;;;;;;;21.05;15.77;;;6.00;88.90;;;;;;5065934;28;20089;-81
2022/03/11 08:23:13;;;;;;;19.13;14.98;;;6.10;89.40;;;;;;5066883;28;20479;-80
2022/03/11 08:25:39;;;;;;;20.20;14.68;;;6.10;88.90;;;;;;5067798;28;20045;-80
2022/03/11 08:28:10;;;;;;;20.27;14.77;;;6.10;89.40;;;;;;5064303;28;20049;-80
2022/03/11 08:30:37;;;;;;;24.60;14.88;;;6.30;88.30;;;;;;5067120;28;20513;-80
2022/03/11 08:33:04;;;;;;;21.23;15.23;;;6.40;88.80;;;;;;5065650;28;20162;-80
2022/03/11 08:35:30;;;;;;;24.15;15.80;;;6.30;88.80;;;;;;5066489;28;20121;-80
2022/03/11 08:37:56;;;;;;;19.33;13.82;;;6.40;87.80;;;;;;5067927;28;20537;-79
2022/03/11 08:40:23;;;;;;;20.67;15.20;;;6.50;89.30;;;;;;5069690;28;20522;-80
2022/03/11 08:42:50;;;;;;;22.63;15.38;;;6.60;88.20;;;;;;5067749;28;20117;-80
2022/03/11 08:45:16;;;;;;;23.35;15.32;;;6.80;87.70;;;;;;5064368;28;20052;-80
2022/03/11 08:47:42;;;;;;;17.50;14.50;;;6.70;85.90;;;;;;5083367;28;20063;-80
2022/03/11 08:50:08;;;;;;;24.20;16.65;;;6.80;86.80;;;;;;5067913;28;20062;-80
2022/03/11 08:52:34;;;;;;;21.52;15.25;;;6.70;86.10;;;;;;5068179;28;20115;-80
2022/03/11 08:55:00;;;;;;;19.20;13.95;;;6.80;85.70;;;;;;5063829;28;20051;-80
2022/03/11 08:57:26;;;;;;;18.67;15.07;;;6.70;85.40;;;;;;5067413;28;20036;-80
2022/03/11 08:59:54;;;;;;;25.13;16.40;;;6.80;85.80;;;;;;5064466;28;20044;-81
2022/03/11 09:02:22;;;;;;;23.60;15.35;;;6.90;84.50;;;;;;5065461;28;20053;-80
2022/03/11 09:04:47;;;;;;;22.20;14.95;;;6.90;84.70;;;;;;5066363;28;20066;-81
2022/03/11 09:07:13;;;;;;;19.23;14.23;;;7.00;84.70;;;;;;5067594;28;20056;-80
2022/03/11 09:09:39;;;;;;;22.25;15.15;;;7.00;85.10;;;;;;5067175;28;20131;-80
2022/03/11 09:12:05;;;;;;;23.25;15.05;;;7.00;85.30;;;;;;5068472;28;20032;-80
2022/03/11 09:14:31;;;;;;;28.52;14.88;;;7.20;84.30;;;;;;5068105;28;20060;-80
2022/03/11 09:16:58;;;;;;;21.10;14.70;;;7.20;84.20;;;;;;5064529;28;20032;-80
2022/03/11 09:19:24;;;;;;;18.80;15.05;;;7.30;81.90;;;;;;5067593;28;20047;-80
2022/03/11 09:21:49;;;;;;;20.25;14.48;;;7.40;82.20;;;;;;5066695;28;20032;-80
2022/03/11 09:24:16;;;;;;;22.02;16.30;;;7.50;82.00;;;;;;5067838;28;20041;-81
2022/03/11 09:26:42;;;;;;;24.42;15.57;;;7.70;81.70;;;;;;5065498;28;20033;-80
2022/03/11 09:29:14;;;;;;;24.02;15.43;;;7.70;83.60;;;;;;5068649;28;20119;-80
2022/03/11 09:31:40;;;;;;;18.38;14.80;;;7.90;82.10;;;;;;5096293;28;20036;-80
2022/03/11 09:34:05;;;;;;;20.83;14.50;;;8.10;80.60;;;;;;5069052;28;20036;-81
2022/03/11 09:36:31;;;;;;;22.50;14.88;;;8.00;79.00;;;;;;5066201;28;22007;-80
2022/03/11 09:38:57;;;;;;;18.80;15.13;;;7.90;79.50;;;;;;5066144;28;20056;-80
2022/03/11 09:41:29;;;;;;;20.65;15.13;;;8.00;78.50;;;;;;5064324;28;20047;-80
2022/03/11 09:43:56;;;;;;;19.67;15.38;;;8.10;80.10;;;;;;5067907;28;20087;-82
2022/03/11 09:46:22;;;;;;;18.90;15.60;;;8.10;77.50;;;;;;5069769;28;20033;-81
2022/03/11 09:48:48;;;;;;;22.17;15.70;;;8.10;78.90;;;;;;5069881;28;20047;-81
2022/03/11 09:51:16;;;;;;;22.88;16.38;;;8.20;79.10;;;;;;5052629;28;20422;-81
2022/03/11 09:53:42;;;;;;;19.88;14.75;;;8.10;76.70;;;;;;5069948;28;20115;-81
2022/03/11 09:56:08;;;;;;;20.13;15.32;;;8.20;77.10;;;;;;5070644;28;20120;-81
2022/03/11 09:58:34;;;;;;;18.92;15.85;;;8.30;76.10;;;;;;5072502;28;20092;-81
2022/03/11 10:01:00;;;;;;;20.52;14.35;;;8.10;75.40;;;;;;5070123;28;20032;-81
2022/03/11 10:03:30;;;;;;;18.88;15.48;;;8.20;76.60;;;;;;5072317;28;20093;-81
2022/03/11 10:05:58;;;;;;;19.13;14.35;;;8.30;79.60;;;;;;5082010;28;20044;-81
2022/03/11 10:08:36;;;;;;;21.20;16.10;;;8.50;76.40;;;;;;5083096;28;20127;-80
2022/03/11 10:11:26;;;;;;;18.88;13.95;;;8.60;76.00;;;;;;5076012;28;20040;-81
2022/03/11 10:13:54;;;;;;;20.85;15.68;;;8.60;75.60;;;;;;5085770;28;20086;-81
2022/03/11 10:16:26;;;;;;;22.88;16.08;;;8.60;75.30;;;;;;5076023;28;20036;-81
2022/03/11 10:19:01;;;;;;;21.77;16.05;;;8.70;75.80;;;;;;5104638;28;20700;-81
2022/03/11 10:21:40;;;;;;;23.02;15.75;;;8.50;75.30;;;;;;5069860;28;20033;-81
2022/03/11 10:24:09;;;;;;;19.45;15.63;;;8.60;76.30;;;;;;5071075;28;20700;-81
2022/03/11 10:26:37;;;;;;;21.52;15.70;;;8.80;75.70;;;;;;5066596;28;20082;-81
2022/03/11 10:29:05;;;;;;;23.15;16.00;;;8.90;75.20;;;;;;5070078;28;20059;-81
2022/03/11 10:31:51;;;;;;;21.67;16.45;;;8.90;74.40;;;;;;5067268;28;20502;-81
2022/03/11 10:34:22;;;;;;;20.40;15.48;;;8.90;72.20;;;;;;5068311;28;20407;-81
2022/03/11 10:37:04;;;;;;;21.75;15.32;;;8.90;73.30;;;;;;5103220;27;20529;-81
2022/03/11 10:39:44;;;;;;;24.67;15.70;;;9.00;74.00;;;;;;5059794;28;20051;-81
2022/03/11 10:42:18;;;;;;;18.25;14.60;;;9.20;73.30;;;;;;5069066;28;20043;-81
2022/03/11 10:44:59;;;;;;;20.80;16.50;;;9.20;72.30;;;;;;5100897;27;20048;-82
2022/03/11 10:47:25;;;;;;;22.83;15.52;;;9.20;72.70;;;;;;5071370;28;20120;-80
2022/03/11 10:49:53;;;;;;;21.13;14.48;;;9.30;72.60;;;;;;5068507;28;20131;-81
2022/03/11 10:52:34;;;;;;;19.90;15.02;;;9.60;71.60;;;;;;5066987;28;20045;-81
2022/03/11 10:55:01;;;;;;;19.58;15.07;;;9.70;72.00;;;;;;5065170;28;20135;-81
2022/03/11 10:57:35;;;;;;;21.92;14.80;;;9.50;71.10;;;;;;5065853;28;20507;-81
2022/03/11 11:00:38;;;;;;;23.08;16.30;;;9.60;70.90;;;;;;5065469;28;20126;-81
2022/03/11 11:03:08;;;;;;;19.90;15.52;;;9.80;73.30;;;;;;5062673;28;20779;-81
2022/03/11 11:05:35;;;;;;;20.02;15.35;;;10.00;70.20;;;;;;5065252;28;20064;-82
2022/03/11 11:08:03;;;;;;;19.65;15.88;;;9.90;69.60;;;;;;5065226;28;20079;-81
2022/03/11 11:10:31;;;;;;;24.10;15.45;;;10.00;69.20;;;;;;5064234;28;20051;-81
2022/03/11 11:12:57;;;;;;;19.13;15.02;;;9.90;68.60;;;;;;5062061;28;21968;-82
2022/03/11 11:15:24;;;;;;;18.67;14.98;;;10.00;69.80;;;;;;5066182;28;20121;-82
2022/03/11 11:17:52;;;;;;;22.73;14.45;;;10.10;68.80;;;;;;5066218;28;20052;-82
2022/03/11 11:20:23;;;;;;;23.00;14.02;;;10.20;69.60;;;;;;5094822;28;20439;-82
2022/03/11 11:22:51;;;;;;;17.23;13.50;;;10.30;66.80;;;;;;5072602;28;20136;-81
2022/03/11 11:25:19;;;;;;;23.38;13.93;;;10.70;66.00;;;;;;5076415;28;20051;-82
2022/03/11 11:27:46;;;;;;;15.38;13.27;;;10.60;64.20;;;;;;5065170;28;20060;-81
2022/03/11 11:30:20;;;;;;;18.25;14.48;;;10.60;64.60;;;;;;5065418;28;20078;-82
2022/03/11 11:32:47;;;;;;;19.38;13.60;;;10.60;64.30;;;;;;5099107;28;20053;-81
2022/03/11 11:35:33;;;;;;;18.20;14.00;;;10.90;65.30;;;;;;5068722;28;20040;-82
2022/03/11 11:38:00;;;;;;;16.30;13.60;;;10.90;64.40;;;;;;5065453;28;20065;-81
2022/03/11 11:40:34;;;;;;;16.33;13.75;;;10.80;64.40;;;;;;5065736;28;20695;-81
2022/03/11 11:43:16;;;;;;;20.38;13.57;;;10.90;64.10;;;;;;5063627;28;20067;-82
2022/03/11 11:45:51;;;;;;;18.35;13.23;;;10.90;62.30;;;;;;5059100;28;20052;-80
2022/03/11 11:48:32;;;;;;;18.93;13.47;;;10.80;63.90;;;;;;5063038;28;20117;-81
2022/03/11 11:51:03;;;;;;;16.92;13.55;;;10.80;64.10;;;;;;5063568;28;20455;-82
2022/03/11 11:53:32;;;;;;;20.08;13.30;;;10.80;62.70;;;;;;5094805;28;20052;-81
2022/03/11 11:55:59;;;;;;;17.08;14.15;;;11.00;63.90;;;;;;5064465;28;20036;-82
2022/03/11 11:58:25;;;;;;;17.30;14.25;;;10.90;60.20;;;;;;5096044;28;20064;-82
2022/03/11 12:00:55;;;;;;;18.58;13.10;;;11.00;61.50;;;;;;5066515;28;20036;-82
2022/03/11 12:03:49;;;;;;;20.05;14.07;;;10.90;61.30;;;;;;5065518;28;20661;-82
2022/03/11 12:06:56;;;;;;;16.20;13.18;;;11.10;62.20;;;;;;5064976;28;20048;-81
2022/03/11 12:12:18;;;;;;;16.33;13.32;;;11.00;60.40;;;;;;5065322;28;20048;-81
2022/03/11 12:15:04;;;;;;;18.23;14.07;;;11.30;61.80;;;;;;5060263;28;20077;-82
2022/03/11 12:17:39;;;;;;;18.48;13.75;;;11.20;61.70;;;;;;5048895;28;20063;-82
2022/03/11 12:20:23;;;;;;;18.42;13.25;;;11.00;58.70;;;;;;5064180;28;20044;-82
2022/03/11 12:22:55;;;;;;;17.00;12.85;;;11.10;60.10;;;;;;5066028;28;20044;-81
2022/03/11 12:25:22;;;;;;;18.80;13.68;;;11.20;61.00;;;;;;5065856;28;20173;-82
2022/03/11 12:28:00;;;;;;;16.90;12.85;;;11.20;59.40;;;;;;5066426;28;20059;-82
2022/03/11 12:30:31;;;;;;;16.67;13.10;;;11.20;60.50;;;;;;5094984;28;20088;-82
2022/03/11 12:33:02;;;;;;;16.52;13.07;;;11.10;60.10;;;;;;5066019;28;20051;-82
2022/03/11 12:35:28;;;;;;;17.83;14.38;;;11.30;59.80;;;;;;5096816;28;20086;-82
2022/03/11 12:37:54;;;;;;;17.27;13.68;;;11.40;60.40;;;;;;5067156;28;20514;-81
2022/03/11 12:40:26;;;;;;;14.05;12.18;;;11.40;60.20;;;;;;5068336;28;20028;-82
2022/03/11 12:43:11;;;;;;;20.48;13.73;;;11.40;59.70;;;;;;5068607;28;20482;-82